Time;durP1;ratioP1;P1;durP2;ratioP2;P2;SDS_P1;SDS_P2;PMS_P1;PMS_P2;Temp;Humidity;BMP_temperature;BMP_pressure;BME280_temperature;BME280_humidity;BME280_pressure;Samples;Min_cycle;Max_cycle;Signal;HPM_P1;HPM_P2
2022/01/27 00:01:06;;;;;;;86.55;30.05;;;;;;;-5.87;100.00;101271.31;1600912;87;21157;-86
2022/01/27 00:03:34;;;;;;;77.53;28.57;;;;;;;-5.87;100.00;101275.25;1639361;84;21554;-86
2022/01/27 00:06:03;;;;;;;84.92;29.60;;;;;;;-5.87;100.00;101273.94;1657486;85;21067;-86
2022/01/27 00:11:01;;;;;;;84.15;30.25;;;;;;;-5.83;100.00;101280.08;1753162;81;21124;-86
2022/01/27 00:13:34;;;;;;;88.00;29.07;;;;;;;-5.83;100.00;101277.45;1741412;81;21075;-85
2022/01/27 00:16:16;;;;;;;76.05;27.85;;;;;;;-5.80;100.00;101275.86;1762770;81;21533;-86
2022/01/27 00:18:44;;;;;;;76.55;27.05;;;;;;;-5.80;100.00;101278.98;1773498;80;20940;-86
2022/01/27 00:21:11;;;;;;;79.77;27.27;;;;;;;-5.80;100.00;101273.23;1773808;80;20999;-86
2022/01/27 00:23:37;;;;;;;79.25;26.57;;;;;;;-5.77;100.00;101272.97;1773600;80;21947;-85
2022/01/27 00:26:04;;;;;;;78.70;27.25;;;;;;;-5.73;100.00;101274.37;1747946;80;21531;-86
2022/01/27 00:28:30;;;;;;;66.00;24.75;;;;;;;-5.74;100.00;101279.25;1773780;80;21570;-85
2022/01/27 00:30:56;;;;;;;77.85;25.72;;;;;;;-5.75;100.00;101272.84;1773830;80;20864;-85
2022/01/27 00:33:22;;;;;;;79.87;26.52;;;;;;;-5.79;100.00;101267.05;1773833;80;20936;-85
2022/01/27 00:35:47;;;;;;;68.97;25.30;;;;;;;-5.79;100.00;101267.05;1766097;80;21789;-86
2022/01/27 00:38:13;;;;;;;71.15;24.87;;;;;;;-5.86;100.00;101271.16;1714883;82;23266;-86
2022/01/27 00:40:39;;;;;;;75.75;26.68;;;;;;;-5.87;100.00;101271.31;1740960;82;20871;-85
2022/01/27 00:43:05;;;;;;;76.45;27.70;;;;;;;-5.89;100.00;101266.67;1751131;81;21834;-86
2022/01/27 00:45:32;;;;;;;81.57;27.15;;;;;;;-5.90;100.00;101269.78;1752106;81;20852;-85
2022/01/27 00:48:02;;;;;;;70.92;25.15;;;;;;;-5.89;100.00;101260.94;1739617;81;21116;-86
2022/01/27 00:50:26;;;;;;;77.87;26.20;;;;;;;-5.91;100.00;101258.95;1755484;80;20991;-85
2022/01/27 00:52:56;;;;;;;73.97;25.37;;;;;;;-5.92;100.00;101257.77;1756611;81;20966;-85
2022/01/27 00:55:22;;;;;;;69.55;24.25;;;;;;;-5.95;100.00;101255.78;1755445;80;20960;-86
2022/01/27 00:58:03;;;;;;;69.95;24.57;;;;;;;-5.99;100.00;101255.72;1755718;81;21625;-86
2022/01/27 01:00:22;;;;;;;70.10;26.25;;;;;;;-6.03;100.00;101250.41;1755594;80;20912;-85
2022/01/27 01:08:02;;;;;;;78.10;26.07;;;;;;;-6.13;100.00;101260.52;1756100;81;20991;-88
2022/01/27 01:15:52;;;;;;;68.07;25.15;;;;;;;-6.14;100.00;101267.56;1756191;81;21042;-87
2022/01/27 01:21:26;;;;;;;75.72;26.73;;;;;;;-6.12;100.00;101259.06;1756488;81;21054;-87
2022/01/27 01:34:29;;;;;;;75.60;26.85;;;;;;;-6.10;100.00;101261.08;1756218;80;21062;-87
2022/01/27 01:37:02;;;;;;;72.32;26.30;;;;;;;-6.11;100.00;101255.98;1742994;81;21015;-87
2022/01/27 01:39:35;;;;;;;75.28;25.77;;;;;;;-6.12;100.00;101258.23;1737920;81;21215;-87
2022/01/27 01:42:08;;;;;;;65.90;24.52;;;;;;;-6.10;100.00;101259.77;1737682;82;21043;-86
2022/01/27 01:44:34;;;;;;;72.95;24.63;;;;;;;-6.12;100.00;101262.99;1737814;82;21504;-86
2022/01/27 01:47:01;;;;;;;70.70;24.32;;;;;;;-6.13;100.00;101263.14;1737736;82;21071;-86
2022/01/27 01:49:28;;;;;;;69.70;24.23;;;;;;;-6.14;100.00;101262.81;1737724;82;21078;-87
2022/01/27 01:52:01;;;;;;;72.72;25.17;;;;;;;-6.14;100.00;101262.32;1737718;82;21147;-87
2022/01/27 01:54:27;;;;;;;68.85;24.18;;;;;;;-6.25;100.00;101240.13;1737567;82;21114;-87
2022/01/27 01:56:54;;;;;;;70.47;24.70;;;;;;;-6.14;100.00;101262.32;1743753;82;26661;-86
2022/01/27 01:59:20;;;;;;;71.60;25.97;;;;;;;-6.18;100.00;101264.84;1737846;82;21031;-87
2022/01/27 02:01:47;;;;;;;68.22;24.95;;;;;;;-6.22;100.00;101257.73;1737778;82;20971;-87
2022/01/27 02:04:14;;;;;;;74.85;26.07;;;;;;;-6.20;100.00;101264.17;1737639;82;21964;-87
2022/01/27 02:20:09;;;;;;;73.07;26.68;;;;;;;-6.47;100.00;101269.53;1661553;85;21500;-87
2022/01/27 02:22:35;;;;;;;66.45;25.50;;;;;;;-6.56;100.00;101278.16;1661828;85;21140;-88
2022/01/27 02:25:03;;;;;;;65.72;25.32;;;;;;;-6.63;100.00;101272.62;1661724;85;20999;-87
2022/01/27 02:27:29;;;;;;;75.50;25.37;;;;;;;-6.63;100.00;101280.97;1661807;85;21086;-88
2022/01/27 02:29:55;;;;;;;76.17;26.75;;;;;;;-6.64;100.00;101285.39;1661593;85;21167;-87
2022/01/27 02:32:22;;;;;;;68.97;26.97;;;;;;;-6.62;100.00;101289.17;1661750;85;26883;-88
2022/01/27 02:34:49;;;;;;;70.08;26.80;;;;;;;-6.59;100.00;101294.16;1639459;86;20966;-87
2022/01/27 02:37:15;;;;;;;76.60;27.55;;;;;;;-6.59;100.00;101283.67;1653522;83;21031;-87
2022/01/27 02:39:42;;;;;;;74.03;28.07;;;;;;;-6.60;100.00;101283.33;1650609;87;21075;-87
2022/01/27 02:42:28;;;;;;;68.02;25.68;;;;;;;-6.64;100.00;101282.77;1650327;85;21641;-86
2022/01/27 02:45:03;;;;;;;73.65;26.48;;;;;;;-6.68;100.00;101276.59;1633399;87;21154;-86
2022/01/27 02:47:29;;;;;;;73.80;25.30;;;;;;;-6.72;100.00;101277.83;1652888;86;21043;-87
2022/01/27 02:49:55;;;;;;;74.35;26.73;;;;;;;-6.72;100.00;101284.38;1698391;84;21572;-87
2022/01/27 02:52:21;;;;;;;75.15;27.25;;;;;;;-6.74;100.00;101280.56;1698524;84;21032;-87
2022/01/27 02:54:48;;;;;;;73.05;26.40;;;;;;;-6.77;100.00;101284.77;1685850;83;21143;-88
2022/01/27 02:57:14;;;;;;;73.92;27.27;;;;;;;-6.82;100.00;101287.41;1683523;85;21085;-87
2022/01/27 02:59:40;;;;;;;78.80;27.82;;;;;;;-6.89;100.00;101294.48;1683527;85;21593;-87
2022/01/27 03:02:06;;;;;;;79.70;27.42;;;;;;;-6.94;100.00;101294.52;1683582;85;20899;-88
2022/01/27 03:04:33;;;;;;;77.60;27.22;;;;;;;-7.00;100.00;101292.41;1683497;83;21014;-87
2022/01/27 03:07:05;;;;;;;73.80;27.93;;;;;;;-7.04;100.00;101291.02;1712485;83;21118;-87
2022/01/27 03:09:33;;;;;;;72.30;26.70;;;;;;;-7.05;100.00;101291.50;1716907;83;21064;-88
2022/01/27 03:12:06;;;;;;;82.72;28.40;;;;;;;-7.10;100.00;101289.25;1715508;82;21084;-88
2022/01/27 03:14:32;;;;;;;77.03;28.62;;;;;;;-7.12;100.00;101296.88;1708951;83;21073;-88
2022/01/27 03:17:00;;;;;;;74.72;29.07;;;;;;;-7.12;100.00;101301.67;1704023;83;21056;-88
2022/01/27 03:19:27;;;;;;;76.62;28.57;;;;;;;-7.14;100.00;101298.82;1693260;84;21360;-88
2022/01/27 03:21:55;;;;;;;74.70;28.65;;;;;;;-7.16;100.00;101299.42;1693475;84;21017;-88
2022/01/27 03:24:24;;;;;;;78.67;27.65;;;;;;;-7.16;100.00;101302.86;1693399;84;21037;-87
2022/01/27 03:26:51;;;;;;;80.07;29.10;;;;;;;-7.18;100.00;101300.02;1693170;84;21013;-88
2022/01/27 03:29:18;;;;;;;78.65;30.08;;;;;;;-7.19;100.00;101300.98;1693521;84;21076;-88
2022/01/27 03:31:46;;;;;;;77.50;29.75;;;;;;;-7.26;100.00;101296.73;1692967;84;21136;-88
2022/01/27 03:34:13;;;;;;;76.33;29.02;;;;;;;-7.28;100.00;101302.57;1693200;84;21104;-88
2022/01/27 03:36:39;;;;;;;85.85;30.23;;;;;;;-7.28;100.00;101303.05;1719715;81;21108;-88
2022/01/27 03:39:07;;;;;;;74.80;28.95;;;;;;;-7.32;100.00;101304.61;1757142;80;21014;-88
2022/01/27 03:41:35;;;;;;;75.52;28.32;;;;;;;-7.35;100.00;101297.02;1756693;81;21089;-88
2022/01/27 03:44:03;;;;;;;72.12;27.55;;;;;;;-7.40;100.00;101304.89;1756735;81;22163;-88
2022/01/27 03:46:33;;;;;;;71.65;26.75;;;;;;;-7.43;100.00;101305.97;1756842;81;21026;-88
2022/01/27 03:48:59;;;;;;;80.05;28.70;;;;;;;-7.47;100.00;101304.56;1756306;80;21014;-88
2022/01/27 03:51:25;;;;;;;76.37;30.08;;;;;;;-7.51;100.00;101302.31;1756869;81;21535;-88
2022/01/27 03:53:51;;;;;;;74.90;28.83;;;;;;;-7.55;100.00;101305.18;1757231;81;20916;-88
2022/01/27 03:56:16;;;;;;;73.42;27.37;;;;;;;-7.60;100.00;101306.02;1756312;80;21131;-89
2022/01/27 03:58:42;;;;;;;79.97;30.32;;;;;;;-7.66;100.00;101310.92;1756805;81;27545;-88
2022/01/27 04:01:08;;;;;;;73.83;26.65;;;;;;;-7.75;100.00;101305.13;1756802;81;26454;-89
2022/01/27 04:03:37;;;;;;;78.02;26.45;;;;;;;-7.81;100.00;101305.14;1757160;80;20852;-89
2022/01/27 04:08:37;;;;;;;73.37;29.20;;;;;;;-7.90;100.00;101308.02;1683251;83;20943;-89
2022/01/27 04:11:07;;;;;;;72.95;29.63;;;;;;;-7.94;100.00;101307.92;1677654;85;21792;-89
2022/01/27 04:13:33;;;;;;;78.50;27.82;;;;;;;-7.97;100.00;101308.61;1679682;84;21047;-89
2022/01/27 04:15:59;;;;;;;84.50;28.98;;;;;;;-8.03;100.00;101312.54;1683647;84;21133;-89
2022/01/27 04:18:26;;;;;;;77.47;29.82;;;;;;;-8.03;100.00;101312.54;1677934;85;21613;-89
2022/01/27 04:20:52;;;;;;;71.53;27.93;;;;;;;-8.05;100.00;101321.83;1679957;84;21058;-89
2022/01/27 04:23:18;;;;;;;74.85;29.00;;;;;;;-8.06;100.00;101321.48;1683753;83;26784;-89
2022/01/27 04:25:48;;;;;;;72.72;28.90;;;;;;;-8.05;100.00;101315.30;1677027;85;21312;-89
2022/01/27 04:28:20;;;;;;;84.17;28.55;;;;;;;-8.06;100.00;101312.33;1680328;84;21114;-90
2022/01/27 04:30:42;;;;;;;77.60;27.85;;;;;;;-8.06;100.00;101308.41;1656414;85;21082;-90
2022/01/27 04:33:09;;;;;;;76.45;29.27;;;;;;;-8.08;100.00;101308.17;1679027;84;22086;-90
2022/01/27 04:35:40;;;;;;;77.53;30.48;;;;;;;-8.05;100.00;101310.55;1680370;84;21439;-90
2022/01/27 04:40:53;;;;;;;84.17;30.55;;;;;;;-8.06;100.00;101312.78;1682124;84;21610;-88
2022/01/27 04:45:57;;;;;;;76.97;29.07;;;;;;;-8.07;100.00;101326.34;1675937;85;21061;-88
2022/01/27 04:48:17;;;;;;;79.87;27.55;;;;;;;-8.06;100.00;101327.16;1660501;86;21531;-88
2022/01/27 04:50:41;;;;;;;79.95;31.25;;;;;;;-8.05;100.00;101334.08;1660050;86;21101;-89
2022/01/27 04:53:13;;;;;;;84.25;29.48;;;;;;;-8.06;100.00;101333.25;1664202;86;21194;-88
2022/01/27 04:55:35;;;;;;;84.58;33.02;;;;;;;-8.00;100.00;101339.30;1660250;85;21482;-91
2022/01/27 04:58:10;;;;;;;81.10;28.85;;;;;;;-7.95;100.00;101336.79;1664240;86;21191;-89
2022/01/27 05:00:31;;;;;;;78.78;28.85;;;;;;;-7.96;100.00;101343.81;1660671;86;21446;-91
2022/01/27 05:03:00;;;;;;;85.22;31.82;;;;;;;-7.96;100.00;101335.97;1664617;86;26386;-88
2022/01/27 05:05:25;;;;;;;83.65;31.45;;;;;;;-7.94;100.00;101341.05;1693936;83;21061;-89
2022/01/27 05:07:58;;;;;;;82.08;31.57;;;;;;;-7.95;100.00;101340.23;1726615;82;21001;-89
2022/01/27 05:10:27;;;;;;;82.90;32.35;;;;;;;-7.92;100.00;101342.61;1726081;81;21073;-88
2022/01/27 05:12:54;;;;;;;91.32;34.67;;;;;;;-7.91;100.00;101342.98;1725869;81;21680;-88
2022/01/27 05:15:18;;;;;;;104.75;35.75;;;;;;;-7.90;100.00;101349.03;1712911;82;21019;-88
2022/01/27 05:17:44;;;;;;;122.78;42.98;;;;;;;-7.84;100.00;101338.91;1727194;81;20867;-88
2022/01/27 05:20:11;;;;;;;98.55;35.70;;;;;;;-7.75;100.00;101344.38;1721552;82;20883;-88
2022/01/27 05:22:37;;;;;;;108.27;36.75;;;;;;;-7.73;100.00;101350.29;1721502;83;21275;-88
2022/01/27 05:25:03;;;;;;;116.45;41.08;;;;;;;-7.72;100.00;101359.83;1721138;82;27029;-89
2022/01/27 05:27:29;;;;;;;124.72;39.48;;;;;;;-7.66;100.00;101362.77;1721375;82;21048;-89
2022/01/27 05:29:55;;;;;;;138.75;44.42;;;;;;;-7.60;100.00;101366.69;1733465;82;20847;-88
2022/01/27 05:32:21;;;;;;;125.92;45.00;;;;;;;-7.54;100.00;101365.71;1726392;83;20978;-89
2022/01/27 05:34:48;;;;;;;131.03;43.95;;;;;;;-7.47;100.00;101363.45;1726224;83;21015;-88
2022/01/27 05:37:14;;;;;;;120.75;42.03;;;;;;;-7.42;100.00;101370.44;1728037;81;21043;-90
2022/01/27 05:39:40;;;;;;;127.82;44.70;;;;;;;-7.35;100.00;101375.55;1740581;82;26963;-90
2022/01/27 05:42:06;;;;;;;136.15;47.10;;;;;;;-7.26;100.00;101372.67;1740662;81;21082;-90
2022/01/27 05:44:32;;;;;;;137.88;45.75;;;;;;;-7.19;100.00;101368.58;1740449;82;21007;-90
2022/01/27 05:46:58;;;;;;;135.07;42.78;;;;;;;-7.10;100.00;101373.55;1740523;81;21685;-89
2022/01/27 05:49:24;;;;;;;121.55;40.10;;;;;;;-6.99;100.00;101377.43;1744426;82;26934;-89
2022/01/27 05:51:50;;;;;;;114.30;38.50;;;;;;;-6.90;100.00;101372.73;1740484;82;21183;-90
2022/01/27 05:54:16;;;;;;;116.08;39.98;;;;;;;-6.79;100.00;101380.17;1740689;82;22133;-89
2022/01/27 05:56:42;;;;;;;114.60;37.33;;;;;;;-6.74;100.00;101378.01;1740379;82;21072;-89
2022/01/27 05:59:08;;;;;;;110.90;38.80;;;;;;;-6.66;100.00;101375.09;1740717;81;21118;-89
2022/01/27 06:01:34;;;;;;;110.20;36.17;;;;;;;-6.59;100.00;101374.09;1740460;82;27458;-89
2022/01/27 06:04:00;;;;;;;123.72;40.55;;;;;;;-6.49;100.00;101376.80;1740546;82;26619;-90
2022/01/27 06:06:26;;;;;;;123.42;40.73;;;;;;;-6.42;100.00;101377.93;1719592;82;21514;-89
2022/01/27 06:08:52;;;;;;;126.85;42.00;;;;;;;-6.34;100.00;101378.12;1740706;82;20944;-89
2022/01/27 06:11:18;;;;;;;124.50;40.55;;;;;;;-6.19;100.00;101375.48;1740637;82;21145;-89
2022/01/27 06:13:44;;;;;;;132.57;43.65;;;;;;;-6.04;100.00;101375.14;1737055;82;20968;-89
2022/01/27 06:16:11;;;;;;;128.62;41.98;;;;;;;-5.89;100.00;101373.78;1740500;82;20995;-89
2022/01/27 06:18:39;;;;;;;128.35;40.33;;;;;;;-5.73;100.00;101370.66;1740598;82;21053;-89
2022/01/27 06:21:06;;;;;;;125.22;40.28;;;;;;;-5.56;100.00;101371.33;1740467;82;21039;-89
2022/01/27 06:23:32;;;;;;;124.47;41.98;;;;;;;-5.40;100.00;101373.41;1740649;82;21127;-88
2022/01/27 06:26:00;;;;;;;123.40;41.60;;;;;;;-5.25;100.00;101375.15;1741045;82;20992;-88
2022/01/27 06:28:27;;;;;;;123.58;41.13;;;;;;;-5.12;100.00;101379.64;1741347;82;20991;-88
2022/01/27 06:30:53;;;;;;;128.60;41.63;;;;;;;-5.01;100.00;101372.11;1740235;82;20992;-89
2022/01/27 06:33:19;;;;;;;135.65;43.98;;;;;;;-4.94;100.00;101367.97;1740350;82;21574;-89
2022/01/27 06:35:45;;;;;;;137.10;43.70;;;;;;;-4.83;100.00;101366.97;1740442;82;22081;-89
2022/01/27 06:38:12;;;;;;;129.82;41.18;;;;;;;-4.63;100.00;101360.72;1677792;84;38183;-88
2022/01/27 06:40:38;;;;;;;122.25;39.63;;;;;;;-4.46;100.00;101362.28;1706033;83;21506;-89
2022/01/27 06:43:04;;;;;;;119.35;36.55;;;;;;;-4.30;100.00;101367.76;1692311;84;20879;-88
2022/01/27 06:45:30;;;;;;;106.63;35.13;;;;;;;-4.18;100.00;101360.02;1692666;83;21577;-87
2022/01/27 06:47:55;;;;;;;97.33;32.55;;;;;;;-4.07;100.00;101362.14;1662672;86;21651;-87
2022/01/27 06:50:21;;;;;;;94.95;32.33;;;;;;;-3.90;100.00;101358.74;1692173;84;20950;-89
2022/01/27 06:55:22;;;;;;;97.17;31.97;;;;;;;-3.63;100.00;101366.29;1870271;76;22675;-88
2022/01/27 06:57:49;;;;;;;99.40;32.45;;;;;;;-3.61;100.00;101365.17;1826317;78;20927;-88
2022/01/27 07:00:17;;;;;;;95.65;33.28;;;;;;;-3.51;100.00;101363.78;1826593;78;21050;-89
2022/01/27 07:02:44;;;;;;;95.57;32.65;;;;;;;-3.37;100.00;101364.59;1826433;78;20955;-89
2022/01/27 07:05:15;;;;;;;96.25;30.62;;;;;;;-3.23;100.00;101360.13;1826527;77;21031;-89
2022/01/27 07:07:44;;;;;;;97.02;30.45;;;;;;;-3.08;100.00;101350.37;1806093;78;20919;-88
2022/01/27 07:10:11;;;;;;;83.92;27.07;;;;;;;-2.90;100.00;101353.81;1826675;77;20987;-88
2022/01/27 07:12:43;;;;;;;85.38;26.97;;;;;;;-2.82;100.00;101356.52;1826427;77;21949;-88
2022/01/27 07:15:10;;;;;;;85.92;28.40;;;;;;;-2.74;100.00;101355.73;1826089;78;21022;-88
2022/01/27 07:17:36;;;;;;;82.95;28.52;;;;;;;-2.49;100.00;101354.09;1826730;78;21012;-89
2022/01/27 07:20:02;;;;;;;97.62;29.27;;;;;;;-2.29;100.00;101356.86;1826595;78;21014;-88
2022/01/27 07:22:34;;;;;;;84.55;27.13;;;;;;;-2.14;100.00;101354.95;1826553;78;20955;-89
2022/01/27 07:25:02;;;;;;;85.87;27.75;;;;;;;-1.92;100.00;101351.73;1826315;78;21812;-92
2022/01/27 07:27:28;;;;;;;88.58;29.30;;;;;;;-1.72;100.00;101359.41;1826319;78;21485;-88
2022/01/27 07:29:54;;;;;;;84.52;28.52;;;;;;;-1.53;100.00;101363.58;1826542;77;20856;-88
2022/01/27 07:32:19;;;;;;;81.60;27.55;;;;;;;-1.49;100.00;101360.47;1826771;78;20935;-88
2022/01/27 07:34:45;;;;;;;84.55;29.30;;;;;;;-1.29;100.00;101365.48;1808253;78;21626;-88
2022/01/27 07:37:11;;;;;;;89.95;29.63;;;;;;;-1.28;100.00;101373.23;1826231;78;21332;-87
2022/01/27 07:39:37;;;;;;;94.15;31.25;;;;;;;-1.14;100.00;101379.70;1808143;78;21069;-88
2022/01/27 07:42:03;;;;;;;88.82;31.42;;;;;;;-0.95;100.00;101371.44;1826316;77;20889;-87
2022/01/27 07:44:29;;;;;;;97.53;31.17;;;;;;;-0.80;100.00;101366.31;1826810;78;21023;-86
2022/01/27 07:46:56;;;;;;;95.57;33.20;;;;;;;-0.59;100.00;101373.77;1826459;78;21191;-87
2022/01/27 07:49:22;;;;;;;115.50;37.05;;;;;;;-0.35;100.00;101378.19;1826668;78;21094;-86
2022/01/27 07:51:49;;;;;;;112.70;37.23;;;;;;;-0.33;100.00;101372.70;1807914;78;20960;-86
2022/01/27 07:54:15;;;;;;;85.77;29.52;;;;;;;-0.25;100.00;101377.99;1828490;78;21053;-87
2022/01/27 07:56:41;;;;;;;91.70;31.10;;;;;;;-0.31;100.00;101383.47;1832802;78;21475;-87
2022/01/27 07:59:07;;;;;;;94.55;30.30;;;;;;;-0.38;100.00;101380.33;1829859;77;20845;-87
2022/01/27 08:01:34;;;;;;;98.82;32.50;;;;;;;-0.15;100.00;101389.20;1832785;78;20960;-88
2022/01/27 08:04:03;;;;;;;90.90;31.27;;;;;;;0.05;100.00;101387.00;1831016;78;21281;-88
2022/01/27 08:06:29;;;;;;;93.47;32.10;;;;;;;-0.01;100.00;101394.31;1831580;78;20944;-88
2022/01/27 08:08:55;;;;;;;93.33;30.82;;;;;;;-0.01;100.00;101385.04;1832121;78;20880;-86
2022/01/27 08:11:22;;;;;;;96.80;32.00;;;;;;;0.19;100.00;101394.24;1831175;76;21666;-87
2022/01/27 08:13:48;;;;;;;99.83;32.83;;;;;;;0.41;100.00;101390.02;1732384;82;21349;-88
2022/01/27 08:16:18;;;;;;;102.67;33.67;;;;;;;0.59;100.00;101391.56;1732163;82;20954;-86
2022/01/27 08:18:44;;;;;;;98.62;33.35;;;;;;;0.62;100.00;101395.22;1703696;83;20946;-87
2022/01/27 08:21:10;;;;;;;107.07;34.95;;;;;;;0.56;100.00;101392.77;1703465;83;21073;-86
2022/01/27 08:23:38;;;;;;;103.70;34.88;;;;;;;0.69;100.00;101388.20;1703510;83;21775;-87
2022/01/27 08:26:11;;;;;;;91.65;32.70;;;;;;;0.87;100.00;101383.94;1703328;83;21303;-87
2022/01/27 08:28:51;;;;;;;102.47;35.48;;;;;;;1.03;100.00;101376.35;1640971;86;20973;-86
2022/01/27 08:31:14;;;;;;;87.40;30.88;;;;;;;1.24;100.00;101377.86;1637402;87;21142;-87
2022/01/27 08:33:41;;;;;;;84.62;29.25;;;;;;;1.50;100.00;101381.92;1641044;87;21061;-87
2022/01/27 08:36:10;;;;;;;78.15;28.00;;;;;;;1.59;100.00;101381.69;1618842;87;21136;-87
2022/01/27 08:38:43;;;;;;;80.72;28.87;;;;;;;1.58;100.00;101382.67;1650769;85;21101;-86
2022/01/27 08:41:10;;;;;;;78.22;28.23;;;;;;;1.46;100.00;101384.63;1657525;86;21561;-88
2022/01/27 08:43:36;;;;;;;78.67;29.15;;;;;;;1.46;100.00;101384.12;1657377;86;21517;-87
2022/01/27 08:46:04;;;;;;;75.28;26.40;;;;;;;1.56;100.00;101390.53;1657713;86;21057;-86
2022/01/27 08:48:30;;;;;;;68.97;26.37;;;;;;;1.64;100.00;101384.30;1657935;86;21160;-86
2022/01/27 08:51:01;;;;;;;67.10;23.95;;;;;;;1.75;100.00;101381.20;1657903;85;21149;-87
2022/01/27 08:53:29;;;;;;;64.65;24.72;;;;;;;1.88;100.00;101383.21;1657850;86;20981;-87
2022/01/27 08:55:55;;;;;;;72.70;26.55;;;;;;;2.04;100.00;101375.88;1652255;86;21069;-88
2022/01/27 08:58:25;;;;;;;69.62;26.05;;;;;;;2.04;100.00;101372.41;1629451;86;21064;-89
2022/01/27 09:00:54;;;;;;;68.60;26.10;;;;;;;2.18;100.00;101374.74;1623097;87;21445;-89
2022/01/27 09:03:20;;;;;;;66.17;25.02;;;;;;;2.34;100.00;101372.37;1583600;90;21154;-88
2022/01/27 09:05:46;;;;;;;68.05;25.85;;;;;;;2.40;100.00;101374.28;1584004;89;21055;-87
2022/01/27 09:08:12;;;;;;;68.37;26.12;;;;;;;2.54;100.00;101369.44;1585846;90;21109;-86
2022/01/27 09:10:40;;;;;;;70.05;25.02;;;;;;;2.59;100.00;101364.39;1569379;90;20883;-86
2022/01/27 09:13:07;;;;;;;69.03;25.20;;;;;;;2.62;100.00;101364.02;1548497;92;21177;-86
2022/01/27 09:15:34;;;;;;;76.05;26.55;;;;;;;2.41;99.30;101359.97;1573865;88;21282;-85
2022/01/27 09:18:03;;;;;;;70.47;26.12;;;;;;;2.39;100.00;101360.16;1590542;88;21107;-85
2022/01/27 09:20:31;;;;;;;74.47;28.38;;;;;;;2.42;100.00;101366.95;1590477;90;21605;-85
2022/01/27 09:23:00;;;;;;;80.40;29.07;;;;;;;2.54;100.00;101366.78;1590093;90;21041;-85
2022/01/27 09:25:32;;;;;;;78.62;28.52;;;;;;;2.51;99.42;101367.16;1628833;83;21141;-85
2022/01/27 09:27:56;;;;;;;74.40;25.70;;;;;;;2.71;100.00;101365.54;1717243;83;21057;-85
2022/01/27 09:30:24;;;;;;;68.07;25.95;;;;;;;2.78;99.28;101362.12;1721341;83;21553;-85
2022/01/27 09:32:51;;;;;;;79.53;28.45;;;;;;;2.67;94.07;101356.27;1721364;83;21072;-85
2022/01/27 09:35:19;;;;;;;81.45;28.87;;;;;;;2.66;96.32;101360.46;1721485;83;21057;-84
2022/01/27 09:37:46;;;;;;;78.60;27.93;;;;;;;2.75;98.34;101356.66;1697242;83;21026;-84
2022/01/27 09:40:15;;;;;;;84.45;29.95;;;;;;;2.81;96.25;101352.42;1721364;83;21258;-85
2022/01/27 09:42:48;;;;;;;80.77;30.68;;;;;;;2.73;95.52;101340.05;1720932;82;21113;-84
2022/01/27 09:45:14;;;;;;;82.47;27.67;;;;;;;2.72;90.75;101351.20;1717346;83;21034;-84
2022/01/27 09:47:43;;;;;;;83.65;29.90;;;;;;;2.57;91.21;101348.30;1721607;83;21037;-84
2022/01/27 09:50:25;;;;;;;85.80;30.08;;;;;;;2.60;95.70;101345.25;1613093;86;21162;-83
2022/01/27 09:52:39;;;;;;;74.22;24.92;;;;;;;2.72;92.19;101346.40;1632667;86;20986;-84
2022/01/27 09:55:07;;;;;;;65.60;24.60;;;;;;;2.68;88.47;101341.97;1635876;86;21053;-83
2022/01/27 09:57:34;;;;;;;68.42;25.25;;;;;;;2.54;89.57;101342.02;1627179;86;21065;-84
2022/01/27 10:00:01;;;;;;;68.52;25.50;;;;;;;2.57;93.25;101337.65;1636042;86;21104;-83
2022/01/27 10:02:31;;;;;;;77.08;28.10;;;;;;;2.77;95.45;101336.02;1636495;86;21116;-83
2022/01/27 10:04:59;;;;;;;70.55;26.60;;;;;;;2.86;92.99;101342.86;1709167;81;21875;-82
2022/01/27 10:07:31;;;;;;;60.35;23.42;;;;;;;3.02;90.15;101334.28;1726286;81;21180;-83
2022/01/27 10:10:04;;;;;;;56.98;21.35;;;;;;;3.04;89.18;101337.08;1726356;81;21106;-83
2022/01/27 10:12:45;;;;;;;54.33;20.77;;;;;;;3.10;90.60;101339.48;1726947;81;20975;-83
2022/01/27 10:15:21;;;;;;;56.30;20.60;;;;;;;3.19;88.58;101337.81;1551662;91;21105;-82
2022/01/27 10:18:05;;;;;;;48.63;19.50;;;;;;;3.17;86.01;101342.50;1540682;91;21352;-82
2022/01/27 10:20:33;;;;;;;50.25;19.30;;;;;;;3.22;87.06;101343.78;1459723;96;21158;-82
2022/01/27 10:23:19;;;;;;;51.65;20.37;;;;;;;3.30;85.23;101343.14;1442465;98;21098;-83
2022/01/27 10:25:53;;;;;;;54.58;19.67;;;;;;;3.32;86.72;101334.42;1412324;100;21244;-84
2022/01/27 10:31:16;;;;;;;51.45;18.45;;;;;;;3.45;85.33;101336.38;1356941;105;21172;-83
2022/01/27 10:33:48;;;;;;;51.28;19.37;;;;;;;3.52;83.61;101341.23;1356981;104;21105;-84
2022/01/27 10:36:24;;;;;;;53.70;19.23;;;;;;;3.51;83.77;101338.78;1304707;108;21210;-84
2022/01/27 10:39:01;;;;;;;39.60;13.60;;;;;;;3.57;83.00;101334.00;1290931;109;21172;-84
2022/01/27 10:41:36;;;;;;;43.35;15.70;;;;;;;3.61;81.28;101329.40;1271920;111;21221;-84
2022/01/27 10:44:17;;;;;;;55.08;18.57;;;;;;;3.57;80.92;101326.82;1272306;112;22270;-84
2022/01/27 10:47:12;;;;;;;41.83;16.65;;;;;;;3.62;80.18;101332.39;1272155;111;21177;-84
2022/01/27 10:49:49;;;;;;;50.17;17.70;;;;;;;3.68;79.32;101334.79;1280154;109;21266;-84
2022/01/27 10:52:31;;;;;;;48.52;17.77;;;;;;;3.62;81.57;101327.06;1274333;110;21709;-84
2022/01/27 10:55:10;;;;;;;52.00;18.20;;;;;;;3.73;82.40;101325.67;1277151;110;21272;-84
2022/01/27 10:57:36;;;;;;;49.35;18.12;;;;;;;3.72;79.47;101333.88;1321538;106;21242;-84
2022/01/27 11:00:16;;;;;;;51.95;17.90;;;;;;;3.66;76.96;101327.48;1345421;105;21197;-84
2022/01/27 11:03:02;;;;;;;47.67;17.50;;;;;;;3.51;77.37;101322.79;1345197;105;21195;-84
2022/01/27 11:05:38;;;;;;;50.23;17.75;;;;;;;3.43;76.19;101322.42;1345189;106;21201;-83
2022/01/27 11:08:09;;;;;;;38.02;14.78;;;;;;;3.30;77.41;101327.16;1322713;108;21198;-83
2022/01/27 11:10:35;;;;;;;39.33;14.53;;;;;;;3.22;75.88;101322.48;1324418;108;22612;-83
2022/01/27 11:13:03;;;;;;;38.23;14.47;;;;;;;3.04;75.02;101318.95;1374473;103;21067;-84
2022/01/27 11:15:29;;;;;;;40.43;14.93;;;;;;;2.97;76.91;101314.87;1380571;103;21238;-84
2022/01/27 11:17:56;;;;;;;42.93;14.80;;;;;;;2.88;74.47;101310.71;1364122;103;21135;-85
2022/01/27 11:20:32;;;;;;;42.20;14.93;;;;;;;2.86;76.10;101312.76;1380769;101;21163;-85
2022/01/27 11:28:00;;;;;;;38.13;14.18;;;;;;;2.62;73.93;101308.13;1404291;101;21148;-84
2022/01/27 11:30:43;;;;;;;41.65;14.70;;;;;;;2.48;75.07;101312.48;1404904;102;21117;-84
2022/01/27 11:33:14;;;;;;;37.00;13.60;;;;;;;2.50;77.22;101306.99;1427567;99;21117;-84
2022/01/27 11:38:12;;;;;;;39.80;14.83;;;;;;;2.56;78.58;101306.23;1430931;97;21600;-84
2022/01/27 11:40:49;;;;;;;39.88;14.70;;;;;;;2.61;78.33;101302.99;1531195;93;21201;-83
2022/01/27 11:43:17;;;;;;;35.45;12.75;;;;;;;2.68;77.12;101303.89;1537076;93;21034;-84
2022/01/27 11:45:51;;;;;;;44.13;14.33;;;;;;;2.75;77.76;101300.78;1498862;92;21097;-84
2022/01/27 11:50:54;;;;;;;38.67;13.53;;;;;;;2.55;72.63;101305.08;1496393;95;21110;-84
2022/01/27 11:53:51;;;;;;;42.08;12.98;;;;;;;2.38;73.32;101309.80;1503268;94;21480;-84
2022/01/27 11:56:36;;;;;;;28.83;10.95;;;;;;;2.27;72.52;101300.50;1513396;92;21153;-84
2022/01/27 11:59:05;;;;;;;33.75;12.60;;;;;;;2.13;70.27;101304.02;1453622;97;21186;-84
2022/01/27 12:01:36;;;;;;;39.27;12.73;;;;;;;2.02;71.42;101302.65;1430187;100;21243;-84
2022/01/27 12:04:11;;;;;;;35.08;11.40;;;;;;;1.84;71.04;101298.23;1444341;98;21208;-85
2022/01/27 12:06:50;;;;;;;31.50;10.90;;;;;;;1.72;70.14;101300.53;1474060;96;21740;-85
2022/01/27 12:09:27;;;;;;;33.80;11.38;;;;;;;1.52;69.36;101309.55;1474072;97;21108;-84
2022/01/27 12:12:12;;;;;;;29.20;10.40;;;;;;;1.28;69.57;101303.48;1471919;96;21082;-84
2022/01/27 12:14:47;;;;;;;30.57;10.45;;;;;;;1.29;71.68;101299.80;1451451;97;21158;-84